sensor_id;sensor_type;location;lat;lon;timestamp;P1;durP1;ratioP1;P2;durP2;ratioP2
5303;SDS011;2674;49.722;10.892;2023-03-01T00:01:09;19.13;;;11.37;;
5303;SDS011;2674;49.722;10.892;2023-03-01T00:03:36;21.30;;;11.30;;
5303;SDS011;2674;49.722;10.892;2023-03-01T00:06:03;20.47;;;12.17;;
5303;SDS011;2674;49.722;10.892;2023-03-01T00:08:29;18.37;;;10.80;;
5303;SDS011;2674;49.722;10.892;2023-03-01T00:13:37;15.97;;;10.27;;
5303;SDS011;2674;49.722;10.892;2023-03-01T00:16:04;18.10;;;9.37;;
5303;SDS011;2674;49.722;10.892;2023-03-01T00:18:35;18.93;;;11.00;;
5303;SDS011;2674;49.722;10.892;2023-03-01T00:21:00;15.63;;;9.47;;
5303;SDS011;2674;49.722;10.892;2023-03-01T00:23:26;16.57;;;9.70;;
5303;SDS011;2674;49.722;10.892;2023-03-01T00:25:53;19.97;;;11.60;;
5303;SDS011;2674;49.722;10.892;2023-03-01T00:28:19;17.43;;;11.10;;
5303;SDS011;2674;49.722;10.892;2023-03-01T00:30:46;18.77;;;10.93;;
5303;SDS011;2674;49.722;10.892;2023-03-01T00:33:12;16.77;;;10.17;;
5303;SDS011;2674;49.722;10.892;2023-03-01T00:35:38;18.67;;;11.40;;
5303;SDS011;2674;49.722;10.892;2023-03-01T00:38:04;19.40;;;11.50;;
5303;SDS011;2674;49.722;10.892;2023-03-01T00:40:31;24.77;;;11.57;;
5303;SDS011;2674;49.722;10.892;2023-03-01T00:42:59;17.23;;;10.43;;
5303;SDS011;2674;49.722;10.892;2023-03-01T00:45:25;19.00;;;11.70;;
5303;SDS011;2674;49.722;10.892;2023-03-01T00:47:52;17.57;;;11.13;;
5303;SDS011;2674;49.722;10.892;2023-03-01T00:50:18;20.90;;;11.20;;
5303;SDS011;2674;49.722;10.892;2023-03-01T00:52:44;21.33;;;12.07;;
5303;SDS011;2674;49.722;10.892;2023-03-01T00:55:11;24.20;;;11.73;;
5303;SDS011;2674;49.722;10.892;2023-03-01T00:57:37;24.37;;;13.53;;
5303;SDS011;2674;49.722;10.892;2023-03-01T01:00:06;22.90;;;11.97;;
5303;SDS011;2674;49.722;10.892;2023-03-01T01:02:34;19.20;;;11.83;;
5303;SDS011;2674;49.722;10.892;2023-03-01T01:05:00;20.83;;;11.80;;
5303;SDS011;2674;49.722;10.892;2023-03-01T01:07:26;22.77;;;12.20;;
5303;SDS011;2674;49.722;10.892;2023-03-01T01:09:52;22.10;;;13.13;;
5303;SDS011;2674;49.722;10.892;2023-03-01T01:12:18;21.53;;;11.93;;
5303;SDS011;2674;49.722;10.892;2023-03-01T01:14:43;20.60;;;12.10;;
5303;SDS011;2674;49.722;10.892;2023-03-01T01:17:09;26.83;;;12.70;;
5303;SDS011;2674;49.722;10.892;2023-03-01T01:19:35;23.73;;;12.93;;
5303;SDS011;2674;49.722;10.892;2023-03-01T01:22:01;19.37;;;12.13;;
5303;SDS011;2674;49.722;10.892;2023-03-01T01:24:28;21.97;;;10.43;;
5303;SDS011;2674;49.722;10.892;2023-03-01T01:26:54;25.57;;;12.67;;
5303;SDS011;2674;49.722;10.892;2023-03-01T01:29:20;28.67;;;13.30;;
5303;SDS011;2674;49.722;10.892;2023-03-01T01:31:46;25.60;;;12.03;;
5303;SDS011;2674;49.722;10.892;2023-03-01T01:34:13;20.70;;;11.30;;
5303;SDS011;2674;49.722;10.892;2023-03-01T01:36:41;23.53;;;12.27;;
5303;SDS011;2674;49.722;10.892;2023-03-01T01:39:12;21.83;;;12.67;;
5303;SDS011;2674;49.722;10.892;2023-03-01T01:41:39;25.17;;;12.13;;
5303;SDS011;2674;49.722;10.892;2023-03-01T01:44:17;21.63;;;12.17;;
5303;SDS011;2674;49.722;10.892;2023-03-01T01:46:47;24.23;;;12.77;;
5303;SDS011;2674;49.722;10.892;2023-03-01T01:49:31;22.77;;;12.40;;
5303;SDS011;2674;49.722;10.892;2023-03-01T01:52:29;25.60;;;13.10;;
5303;SDS011;2674;49.722;10.892;2023-03-01T01:57:36;22.03;;;12.83;;
5303;SDS011;2674;49.722;10.892;2023-03-01T02:00:06;25.30;;;11.73;;
5303;SDS011;2674;49.722;10.892;2023-03-01T02:02:38;25.17;;;10.30;;
5303;SDS011;2674;49.722;10.892;2023-03-01T02:05:09;24.77;;;12.33;;
5303;SDS011;2674;49.722;10.892;2023-03-01T02:07:50;19.40;;;11.13;;
5303;SDS011;2674;49.722;10.892;2023-03-01T02:10:16;22.37;;;12.17;;
5303;SDS011;2674;49.722;10.892;2023-03-01T02:12:42;30.77;;;12.57;;
5303;SDS011;2674;49.722;10.892;2023-03-01T02:15:08;19.60;;;11.50;;
5303;SDS011;2674;49.722;10.892;2023-03-01T02:17:35;23.70;;;13.10;;
5303;SDS011;2674;49.722;10.892;2023-03-01T02:22:39;21.70;;;11.20;;
5303;SDS011;2674;49.722;10.892;2023-03-01T02:30:09;18.03;;;11.00;;
5303;SDS011;2674;49.722;10.892;2023-03-01T02:32:38;22.70;;;11.80;;
5303;SDS011;2674;49.722;10.892;2023-03-01T02:35:07;20.70;;;10.70;;
5303;SDS011;2674;49.722;10.892;2023-03-01T02:37:36;21.50;;;11.97;;
5303;SDS011;2674;49.722;10.892;2023-03-01T02:40:04;25.33;;;11.50;;
5303;SDS011;2674;49.722;10.892;2023-03-01T02:42:36;22.30;;;12.87;;
5303;SDS011;2674;49.722;10.892;2023-03-01T02:45:24;19.77;;;11.03;;
5303;SDS011;2674;49.722;10.892;2023-03-01T02:47:55;21.70;;;12.93;;
5303;SDS011;2674;49.722;10.892;2023-03-01T02:50:35;23.27;;;13.87;;
5303;SDS011;2674;49.722;10.892;2023-03-01T02:53:25;25.73;;;12.50;;
5303;SDS011;2674;49.722;10.892;2023-03-01T02:56:16;24.23;;;12.60;;
5303;SDS011;2674;49.722;10.892;2023-03-01T02:58:42;19.03;;;10.60;;
5303;SDS011;2674;49.722;10.892;2023-03-01T03:01:16;19.53;;;12.00;;
5303;SDS011;2674;49.722;10.892;2023-03-01T03:03:43;21.13;;;11.33;;
5303;SDS011;2674;49.722;10.892;2023-03-01T03:06:10;19.50;;;11.60;;
5303;SDS011;2674;49.722;10.892;2023-03-01T03:08:35;17.93;;;11.37;;
5303;SDS011;2674;49.722;10.892;2023-03-01T03:11:01;20.67;;;10.83;;
5303;SDS011;2674;49.722;10.892;2023-03-01T03:13:27;20.40;;;11.43;;
5303;SDS011;2674;49.722;10.892;2023-03-01T03:15:56;19.33;;;12.80;;
5303;SDS011;2674;49.722;10.892;2023-03-01T03:18:23;16.33;;;10.50;;
5303;SDS011;2674;49.722;10.892;2023-03-01T03:20:53;20.43;;;11.07;;
5303;SDS011;2674;49.722;10.892;2023-03-01T03:23:20;26.40;;;11.73;;
5303;SDS011;2674;49.722;10.892;2023-03-01T03:25:49;19.77;;;11.37;;
5303;SDS011;2674;49.722;10.892;2023-03-01T03:28:16;25.73;;;12.60;;
5303;SDS011;2674;49.722;10.892;2023-03-01T03:30:42;22.20;;;11.87;;
5303;SDS011;2674;49.722;10.892;2023-03-01T03:33:09;21.13;;;11.57;;
5303;SDS011;2674;49.722;10.892;2023-03-01T03:35:43;17.70;;;11.30;;
5303;SDS011;2674;49.722;10.892;2023-03-01T03:38:12;21.93;;;11.57;;
5303;SDS011;2674;49.722;10.892;2023-03-01T03:40:44;22.30;;;12.30;;
5303;SDS011;2674;49.722;10.892;2023-03-01T03:43:14;19.57;;;10.87;;
5303;SDS011;2674;49.722;10.892;2023-03-01T03:45:43;16.63;;;11.73;;
5303;SDS011;2674;49.722;10.892;2023-03-01T03:48:10;25.30;;;12.00;;
5303;SDS011;2674;49.722;10.892;2023-03-01T03:50:37;21.57;;;12.73;;
5303;SDS011;2674;49.722;10.892;2023-03-01T03:53:05;16.67;;;11.33;;
5303;SDS011;2674;49.722;10.892;2023-03-01T03:55:33;22.63;;;12.07;;
5303;SDS011;2674;49.722;10.892;2023-03-01T03:58:00;23.30;;;11.80;;
5303;SDS011;2674;49.722;10.892;2023-03-01T04:00:32;19.13;;;11.70;;
5303;SDS011;2674;49.722;10.892;2023-03-01T04:03:02;21.67;;;12.47;;
5303;SDS011;2674;49.722;10.892;2023-03-01T04:05:28;24.60;;;13.50;;
5303;SDS011;2674;49.722;10.892;2023-03-01T04:07:54;22.80;;;12.83;;
5303;SDS011;2674;49.722;10.892;2023-03-01T04:10:30;21.30;;;12.23;;
5303;SDS011;2674;49.722;10.892;2023-03-01T04:12:58;22.40;;;13.00;;
5303;SDS011;2674;49.722;10.892;2023-03-01T04:15:24;23.67;;;11.67;;
5303;SDS011;2674;49.722;10.892;2023-03-01T04:17:52;22.27;;;11.80;;
5303;SDS011;2674;49.722;10.892;2023-03-01T04:20:20;25.23;;;12.10;;
5303;SDS011;2674;49.722;10.892;2023-03-01T04:22:51;17.83;;;10.67;;
5303;SDS011;2674;49.722;10.892;2023-03-01T04:25:25;20.87;;;11.20;;
5303;SDS011;2674;49.722;10.892;2023-03-01T04:27:51;19.30;;;11.33;;
5303;SDS011;2674;49.722;10.892;2023-03-01T04:30:17;22.17;;;11.60;;
5303;SDS011;2674;49.722;10.892;2023-03-01T04:32:43;19.80;;;12.00;;
5303;SDS011;2674;49.722;10.892;2023-03-01T04:35:09;29.83;;;12.63;;
5303;SDS011;2674;49.722;10.892;2023-03-01T04:37:35;25.50;;;12.07;;
5303;SDS011;2674;49.722;10.892;2023-03-01T04:40:01;21.07;;;11.30;;
5303;SDS011;2674;49.722;10.892;2023-03-01T04:42:38;21.13;;;11.60;;
5303;SDS011;2674;49.722;10.892;2023-03-01T04:45:04;25.90;;;12.93;;
5303;SDS011;2674;49.722;10.892;2023-03-01T04:47:38;26.67;;;13.03;;
5303;SDS011;2674;49.722;10.892;2023-03-01T04:50:05;20.93;;;12.23;;
5303;SDS011;2674;49.722;10.892;2023-03-01T04:52:32;22.03;;;12.90;;
5303;SDS011;2674;49.722;10.892;2023-03-01T04:54:57;26.13;;;13.80;;
5303;SDS011;2674;49.722;10.892;2023-03-01T04:57:23;20.83;;;12.33;;
5303;SDS011;2674;49.722;10.892;2023-03-01T04:59:49;24.90;;;13.17;;
5303;SDS011;2674;49.722;10.892;2023-03-01T05:02:15;27.10;;;12.57;;
5303;SDS011;2674;49.722;10.892;2023-03-01T05:04:41;37.17;;;13.83;;
5303;SDS011;2674;49.722;10.892;2023-03-01T05:07:07;24.40;;;12.77;;
5303;SDS011;2674;49.722;10.892;2023-03-01T05:09:32;25.73;;;13.57;;
5303;SDS011;2674;49.722;10.892;2023-03-01T05:11:58;26.73;;;11.90;;
5303;SDS011;2674;49.722;10.892;2023-03-01T05:14:24;22.10;;;12.50;;
5303;SDS011;2674;49.722;10.892;2023-03-01T05:16:50;27.70;;;12.60;;
5303;SDS011;2674;49.722;10.892;2023-03-01T05:19:16;24.17;;;11.10;;
5303;SDS011;2674;49.722;10.892;2023-03-01T05:21:47;19.90;;;11.73;;
5303;SDS011;2674;49.722;10.892;2023-03-01T05:24:35;26.97;;;12.80;;
5303;SDS011;2674;49.722;10.892;2023-03-01T05:27:01;23.17;;;12.93;;
5303;SDS011;2674;49.722;10.892;2023-03-01T05:29:28;30.10;;;12.93;;
5303;SDS011;2674;49.722;10.892;2023-03-01T05:31:59;22.90;;;12.70;;
5303;SDS011;2674;49.722;10.892;2023-03-01T05:34:27;20.87;;;11.03;;
5303;SDS011;2674;49.722;10.892;2023-03-01T05:36:55;21.37;;;12.87;;
5303;SDS011;2674;49.722;10.892;2023-03-01T05:39:21;23.83;;;13.70;;
5303;SDS011;2674;49.722;10.892;2023-03-01T05:41:52;21.33;;;11.27;;
5303;SDS011;2674;49.722;10.892;2023-03-01T05:44:20;20.33;;;11.80;;
5303;SDS011;2674;49.722;10.892;2023-03-01T05:46:46;26.57;;;13.87;;
5303;SDS011;2674;49.722;10.892;2023-03-01T05:49:12;21.23;;;11.97;;
5303;SDS011;2674;49.722;10.892;2023-03-01T05:51:39;27.83;;;14.33;;
5303;SDS011;2674;49.722;10.892;2023-03-01T05:54:06;24.20;;;13.80;;
5303;SDS011;2674;49.722;10.892;2023-03-01T05:56:33;21.83;;;12.43;;
5303;SDS011;2674;49.722;10.892;2023-03-01T05:59:00;22.77;;;12.97;;
5303;SDS011;2674;49.722;10.892;2023-03-01T06:01:26;27.53;;;15.03;;
5303;SDS011;2674;49.722;10.892;2023-03-01T06:03:52;23.70;;;14.80;;
5303;SDS011;2674;49.722;10.892;2023-03-01T06:06:18;25.03;;;13.70;;
5303;SDS011;2674;49.722;10.892;2023-03-01T06:08:44;25.37;;;12.37;;
5303;SDS011;2674;49.722;10.892;2023-03-01T06:11:10;28.60;;;13.70;;
5303;SDS011;2674;49.722;10.892;2023-03-01T06:13:36;28.10;;;13.97;;
5303;SDS011;2674;49.722;10.892;2023-03-01T06:16:04;37.43;;;16.83;;
5303;SDS011;2674;49.722;10.892;2023-03-01T06:18:31;31.03;;;14.07;;
5303;SDS011;2674;49.722;10.892;2023-03-01T06:20:57;32.23;;;16.43;;
5303;SDS011;2674;49.722;10.892;2023-03-01T06:23:23;27.50;;;14.23;;
5303;SDS011;2674;49.722;10.892;2023-03-01T06:25:49;31.27;;;15.13;;
5303;SDS011;2674;49.722;10.892;2023-03-01T06:28:15;27.63;;;15.10;;
5303;SDS011;2674;49.722;10.892;2023-03-01T06:30:41;24.67;;;14.40;;
5303;SDS011;2674;49.722;10.892;2023-03-01T06:33:07;31.70;;;16.30;;
5303;SDS011;2674;49.722;10.892;2023-03-01T06:35:33;27.67;;;13.53;;
5303;SDS011;2674;49.722;10.892;2023-03-01T06:38:00;31.47;;;15.83;;
5303;SDS011;2674;49.722;10.892;2023-03-01T06:40:28;24.80;;;13.57;;
5303;SDS011;2674;49.722;10.892;2023-03-01T06:42:56;26.97;;;13.10;;
5303;SDS011;2674;49.722;10.892;2023-03-01T06:45:22;27.93;;;14.57;;
5303;SDS011;2674;49.722;10.892;2023-03-01T06:47:48;28.77;;;15.70;;
5303;SDS011;2674;49.722;10.892;2023-03-01T06:50:14;29.67;;;16.53;;
5303;SDS011;2674;49.722;10.892;2023-03-01T06:52:41;27.20;;;14.33;;
5303;SDS011;2674;49.722;10.892;2023-03-01T06:55:08;22.30;;;13.53;;
5303;SDS011;2674;49.722;10.892;2023-03-01T06:57:34;33.77;;;14.67;;
5303;SDS011;2674;49.722;10.892;2023-03-01T07:00:00;27.33;;;13.27;;
5303;SDS011;2674;49.722;10.892;2023-03-01T07:02:26;25.43;;;13.13;;
5303;SDS011;2674;49.722;10.892;2023-03-01T07:04:54;29.10;;;15.30;;
5303;SDS011;2674;49.722;10.892;2023-03-01T07:07:20;27.87;;;13.97;;
5303;SDS011;2674;49.722;10.892;2023-03-01T07:09:48;23.20;;;13.17;;
5303;SDS011;2674;49.722;10.892;2023-03-01T07:12:14;21.83;;;12.13;;
5303;SDS011;2674;49.722;10.892;2023-03-01T07:14:40;26.20;;;14.70;;
5303;SDS011;2674;49.722;10.892;2023-03-01T07:17:06;26.97;;;15.27;;
5303;SDS011;2674;49.722;10.892;2023-03-01T07:19:32;22.97;;;13.57;;
5303;SDS011;2674;49.722;10.892;2023-03-01T07:21:59;27.50;;;14.10;;
5303;SDS011;2674;49.722;10.892;2023-03-01T07:24:28;25.97;;;13.00;;
5303;SDS011;2674;49.722;10.892;2023-03-01T07:26:54;30.80;;;14.83;;
5303;SDS011;2674;49.722;10.892;2023-03-01T07:29:20;29.10;;;12.97;;
5303;SDS011;2674;49.722;10.892;2023-03-01T07:31:46;30.23;;;15.30;;
5303;SDS011;2674;49.722;10.892;2023-03-01T07:34:11;24.03;;;13.33;;
5303;SDS011;2674;49.722;10.892;2023-03-01T07:36:38;24.57;;;13.10;;
5303;SDS011;2674;49.722;10.892;2023-03-01T07:39:08;28.07;;;13.00;;
5303;SDS011;2674;49.722;10.892;2023-03-01T07:41:34;27.83;;;14.63;;
5303;SDS011;2674;49.722;10.892;2023-03-01T07:44:00;23.60;;;13.20;;
5303;SDS011;2674;49.722;10.892;2023-03-01T07:46:26;24.07;;;13.67;;
5303;SDS011;2674;49.722;10.892;2023-03-01T07:48:52;22.63;;;13.90;;
5303;SDS011;2674;49.722;10.892;2023-03-01T07:51:18;32.30;;;14.30;;
5303;SDS011;2674;49.722;10.892;2023-03-01T07:53:47;23.07;;;13.60;;
5303;SDS011;2674;49.722;10.892;2023-03-01T07:56:14;23.80;;;13.37;;
5303;SDS011;2674;49.722;10.892;2023-03-01T07:58:44;22.27;;;13.57;;
5303;SDS011;2674;49.722;10.892;2023-03-01T08:01:14;32.70;;;14.57;;
5303;SDS011;2674;49.722;10.892;2023-03-01T08:03:42;20.93;;;11.73;;
5303;SDS011;2674;49.722;10.892;2023-03-01T08:06:09;28.80;;;13.00;;
5303;SDS011;2674;49.722;10.892;2023-03-01T08:08:36;21.43;;;11.77;;
5303;SDS011;2674;49.722;10.892;2023-03-01T08:11:03;26.03;;;13.20;;
5303;SDS011;2674;49.722;10.892;2023-03-01T08:13:31;31.47;;;12.50;;
5303;SDS011;2674;49.722;10.892;2023-03-01T08:16:04;23.90;;;13.07;;
5303;SDS011;2674;49.722;10.892;2023-03-01T08:18:32;24.63;;;14.00;;
5303;SDS011;2674;49.722;10.892;2023-03-01T08:21:04;23.93;;;13.37;;
5303;SDS011;2674;49.722;10.892;2023-03-01T08:23:33;21.43;;;12.03;;
5303;SDS011;2674;49.722;10.892;2023-03-01T08:26:03;24.80;;;13.17;;
5303;SDS011;2674;49.722;10.892;2023-03-01T08:28:37;25.70;;;13.93;;
5303;SDS011;2674;49.722;10.892;2023-03-01T08:31:14;20.93;;;11.90;;
5303;SDS011;2674;49.722;10.892;2023-03-01T08:33:40;22.63;;;11.67;;
5303;SDS011;2674;49.722;10.892;2023-03-01T08:36:06;24.47;;;13.00;;
5303;SDS011;2674;49.722;10.892;2023-03-01T08:38:33;30.67;;;14.70;;
5303;SDS011;2674;49.722;10.892;2023-03-01T08:41:02;26.30;;;14.80;;
5303;SDS011;2674;49.722;10.892;2023-03-01T08:43:29;24.93;;;13.80;;
5303;SDS011;2674;49.722;10.892;2023-03-01T08:45:55;26.33;;;12.93;;
5303;SDS011;2674;49.722;10.892;2023-03-01T08:48:21;22.17;;;13.70;;
5303;SDS011;2674;49.722;10.892;2023-03-01T08:50:47;25.63;;;12.33;;
5303;SDS011;2674;49.722;10.892;2023-03-01T08:53:13;20.60;;;13.00;;
5303;SDS011;2674;49.722;10.892;2023-03-01T08:55:39;26.83;;;15.77;;
5303;SDS011;2674;49.722;10.892;2023-03-01T08:58:05;27.40;;;12.97;;
5303;SDS011;2674;49.722;10.892;2023-03-01T09:00:34;21.23;;;12.70;;
5303;SDS011;2674;49.722;10.892;2023-03-01T09:03:00;21.23;;;11.70;;
5303;SDS011;2674;49.722;10.892;2023-03-01T09:05:26;23.40;;;13.43;;
5303;SDS011;2674;49.722;10.892;2023-03-01T09:07:52;23.30;;;13.50;;
5303;SDS011;2674;49.722;10.892;2023-03-01T09:10:18;24.20;;;12.70;;
5303;SDS011;2674;49.722;10.892;2023-03-01T09:12:44;21.23;;;13.30;;
5303;SDS011;2674;49.722;10.892;2023-03-01T09:15:10;21.40;;;11.93;;
5303;SDS011;2674;49.722;10.892;2023-03-01T09:17:36;22.10;;;13.00;;
5303;SDS011;2674;49.722;10.892;2023-03-01T09:20:02;30.57;;;14.37;;
5303;SDS011;2674;49.722;10.892;2023-03-01T09:22:30;23.57;;;14.10;;
5303;SDS011;2674;49.722;10.892;2023-03-01T09:24:59;30.30;;;13.30;;
5303;SDS011;2674;49.722;10.892;2023-03-01T09:27:25;23.60;;;13.20;;
5303;SDS011;2674;49.722;10.892;2023-03-01T09:29:51;26.23;;;13.23;;
5303;SDS011;2674;49.722;10.892;2023-03-01T09:32:17;22.20;;;11.57;;
5303;SDS011;2674;49.722;10.892;2023-03-01T09:34:46;22.33;;;13.50;;
5303;SDS011;2674;49.722;10.892;2023-03-01T09:37:46;32.53;;;14.27;;
5303;SDS011;2674;49.722;10.892;2023-03-01T09:40:19;24.47;;;12.67;;
5303;SDS011;2674;49.722;10.892;2023-03-01T09:45:26;24.03;;;13.17;;
5303;SDS011;2674;49.722;10.892;2023-03-01T09:47:58;27.30;;;14.30;;
5303;SDS011;2674;49.722;10.892;2023-03-01T09:50:26;22.00;;;13.10;;
5303;SDS011;2674;49.722;10.892;2023-03-01T09:53:05;22.53;;;12.87;;
5303;SDS011;2674;49.722;10.892;2023-03-01T09:59:45;23.70;;;13.70;;
5303;SDS011;2674;49.722;10.892;2023-03-01T10:01:54;27.97;;;14.50;;
5303;SDS011;2674;49.722;10.892;2023-03-01T10:07:27;23.10;;;12.30;;
5303;SDS011;2674;49.722;10.892;2023-03-01T10:10:05;25.27;;;13.33;;
5303;SDS011;2674;49.722;10.892;2023-03-01T10:12:35;24.43;;;13.20;;
5303;SDS011;2674;49.722;10.892;2023-03-01T10:23:25;21.13;;;12.30;;
5303;SDS011;2674;49.722;10.892;2023-03-01T10:31:33;24.03;;;12.70;;
5303;SDS011;2674;49.722;10.892;2023-03-01T10:36:49;25.87;;;13.40;;
5303;SDS011;2674;49.722;10.892;2023-03-01T10:39:22;21.33;;;12.97;;
5303;SDS011;2674;49.722;10.892;2023-03-01T10:47:14;18.83;;;11.97;;
5303;SDS011;2674;49.722;10.892;2023-03-01T10:50:04;21.03;;;12.00;;
5303;SDS011;2674;49.722;10.892;2023-03-01T10:52:42;20.27;;;11.90;;
5303;SDS011;2674;49.722;10.892;2023-03-01T10:55:33;19.27;;;11.37;;
5303;SDS011;2674;49.722;10.892;2023-03-01T11:00:44;23.23;;;11.53;;
5303;SDS011;2674;49.722;10.892;2023-03-01T11:03:35;18.40;;;11.20;;
5303;SDS011;2674;49.722;10.892;2023-03-01T11:08:44;24.93;;;13.17;;
5303;SDS011;2674;49.722;10.892;2023-03-01T11:13:48;16.53;;;11.83;;
5303;SDS011;2674;49.722;10.892;2023-03-01T11:16:25;18.53;;;11.17;;
5303;SDS011;2674;49.722;10.892;2023-03-01T11:21:47;18.57;;;10.83;;
5303;SDS011;2674;49.722;10.892;2023-03-01T11:27:32;20.57;;;10.67;;
5303;SDS011;2674;49.722;10.892;2023-03-01T11:32:41;11.00;;;7.57;;
5303;SDS011;2674;49.722;10.892;2023-03-01T11:46:20;17.23;;;11.00;;
5303;SDS011;2674;49.722;10.892;2023-03-01T11:57:00;15.37;;;10.93;;
5303;SDS011;2674;49.722;10.892;2023-03-01T11:59:39;16.57;;;10.03;;
5303;SDS011;2674;49.722;10.892;2023-03-01T12:02:40;17.02;;;10.88;;
5303;SDS011;2674;49.722;10.892;2023-03-01T12:07:52;15.53;;;10.63;;
5303;SDS011;2674;49.722;10.892;2023-03-01T12:10:22;17.77;;;10.23;;
5303;SDS011;2674;49.722;10.892;2023-03-01T12:18:45;20.00;;;10.57;;
5303;SDS011;2674;49.722;10.892;2023-03-01T12:24:37;20.40;;;11.27;;
5303;SDS011;2674;49.722;10.892;2023-03-01T12:35:54;19.97;;;11.60;;
5303;SDS011;2674;49.722;10.892;2023-03-01T12:44:01;23.90;;;11.70;;
5303;SDS011;2674;49.722;10.892;2023-03-01T12:46:38;19.23;;;12.40;;
5303;SDS011;2674;49.722;10.892;2023-03-01T12:49:28;19.50;;;12.13;;
5303;SDS011;2674;49.722;10.892;2023-03-01T12:54:35;19.20;;;12.40;;
5303;SDS011;2674;49.722;10.892;2023-03-01T13:02:58;19.47;;;10.20;;
5303;SDS011;2674;49.722;10.892;2023-03-01T13:08:27;19.77;;;11.90;;
5303;SDS011;2674;49.722;10.892;2023-03-01T13:11:19;17.20;;;9.90;;
5303;SDS011;2674;49.722;10.892;2023-03-01T13:13:47;15.63;;;9.80;;
5303;SDS011;2674;49.722;10.892;2023-03-01T13:16:38;17.47;;;12.60;;
5303;SDS011;2674;49.722;10.892;2023-03-01T13:21:46;19.57;;;11.80;;
5303;SDS011;2674;49.722;10.892;2023-03-01T13:27:11;19.83;;;11.53;;
5303;SDS011;2674;49.722;10.892;2023-03-01T13:34:53;24.77;;;12.33;;
5303;SDS011;2674;49.722;10.892;2023-03-01T13:37:34;23.83;;;13.20;;
5303;SDS011;2674;49.722;10.892;2023-03-01T13:42:49;17.40;;;11.33;;
5303;SDS011;2674;49.722;10.892;2023-03-01T13:50:57;20.00;;;12.30;;
5303;SDS011;2674;49.722;10.892;2023-03-01T13:53:26;20.40;;;13.30;;
5303;SDS011;2674;49.722;10.892;2023-03-01T13:56:14;17.33;;;11.83;;
5303;SDS011;2674;49.722;10.892;2023-03-01T14:01:34;19.57;;;11.67;;
5303;SDS011;2674;49.722;10.892;2023-03-01T14:04:01;20.47;;;13.00;;
5303;SDS011;2674;49.722;10.892;2023-03-01T14:06:32;20.30;;;12.00;;
5303;SDS011;2674;49.722;10.892;2023-03-01T14:09:05;20.10;;;11.67;;
5303;SDS011;2674;49.722;10.892;2023-03-01T14:14:28;20.90;;;11.87;;
5303;SDS011;2674;49.722;10.892;2023-03-01T14:17:21;16.40;;;10.10;;
5303;SDS011;2674;49.722;10.892;2023-03-01T14:19:54;20.60;;;10.50;;
5303;SDS011;2674;49.722;10.892;2023-03-01T14:22:25;20.63;;;11.30;;
5303;SDS011;2674;49.722;10.892;2023-03-01T14:25:01;19.83;;;11.80;;
5303;SDS011;2674;49.722;10.892;2023-03-01T14:27:33;18.70;;;11.67;;
5303;SDS011;2674;49.722;10.892;2023-03-01T14:32:57;19.17;;;11.37;;
5303;SDS011;2674;49.722;10.892;2023-03-01T14:35:27;18.43;;;10.60;;
5303;SDS011;2674;49.722;10.892;2023-03-01T14:37:57;13.73;;;9.77;;
5303;SDS011;2674;49.722;10.892;2023-03-01T14:40:27;18.87;;;12.00;;
5303;SDS011;2674;49.722;10.892;2023-03-01T14:42:53;19.60;;;10.50;;
5303;SDS011;2674;49.722;10.892;2023-03-01T14:45:22;15.80;;;10.80;;
5303;SDS011;2674;49.722;10.892;2023-03-01T14:47:51;16.70;;;11.63;;
5303;SDS011;2674;49.722;10.892;2023-03-01T14:50:27;20.37;;;12.43;;
5303;SDS011;2674;49.722;10.892;2023-03-01T14:53:04;16.00;;;11.70;;
5303;SDS011;2674;49.722;10.892;2023-03-01T14:55:33;18.90;;;11.57;;
5303;SDS011;2674;49.722;10.892;2023-03-01T14:58:03;20.13;;;11.60;;
5303;SDS011;2674;49.722;10.892;2023-03-01T15:00:31;17.33;;;11.13;;
5303;SDS011;2674;49.722;10.892;2023-03-01T15:03:05;19.13;;;10.80;;
5303;SDS011;2674;49.722;10.892;2023-03-01T15:05:52;16.30;;;11.03;;
5303;SDS011;2674;49.722;10.892;2023-03-01T15:08:20;14.73;;;10.27;;
5303;SDS011;2674;49.722;10.892;2023-03-01T15:13:41;16.67;;;10.63;;
5303;SDS011;2674;49.722;10.892;2023-03-01T15:19:14;20.60;;;10.37;;
5303;SDS011;2674;49.722;10.892;2023-03-01T15:21:43;14.17;;;10.60;;
5303;SDS011;2674;49.722;10.892;2023-03-01T15:26:51;18.83;;;10.20;;
5303;SDS011;2674;49.722;10.892;2023-03-01T15:29:23;15.73;;;10.07;;
5303;SDS011;2674;49.722;10.892;2023-03-01T15:31:59;17.07;;;9.43;;
5303;SDS011;2674;49.722;10.892;2023-03-01T15:36:59;14.00;;;9.53;;
5303;SDS011;2674;49.722;10.892;2023-03-01T15:39:33;17.10;;;10.33;;
5303;SDS011;2674;49.722;10.892;2023-03-01T15:42:03;20.97;;;11.43;;
5303;SDS011;2674;49.722;10.892;2023-03-01T15:44:36;15.60;;;10.00;;
5303;SDS011;2674;49.722;10.892;2023-03-01T15:47:06;19.77;;;9.80;;
5303;SDS011;2674;49.722;10.892;2023-03-01T15:49:54;14.63;;;9.40;;
5303;SDS011;2674;49.722;10.892;2023-03-01T15:52:24;16.10;;;10.20;;
5303;SDS011;2674;49.722;10.892;2023-03-01T15:55:04;14.90;;;9.53;;
5303;SDS011;2674;49.722;10.892;2023-03-01T15:57:39;15.60;;;10.30;;
5303;SDS011;2674;49.722;10.892;2023-03-01T16:00:05;18.10;;;9.57;;
5303;SDS011;2674;49.722;10.892;2023-03-01T16:02:36;20.10;;;10.47;;
5303;SDS011;2674;49.722;10.892;2023-03-01T16:05:03;16.17;;;10.77;;
5303;SDS011;2674;49.722;10.892;2023-03-01T16:07:29;20.27;;;11.10;;
5303;SDS011;2674;49.722;10.892;2023-03-01T16:09:56;17.13;;;11.43;;
5303;SDS011;2674;49.722;10.892;2023-03-01T16:12:22;17.50;;;9.87;;
5303;SDS011;2674;49.722;10.892;2023-03-01T16:14:49;20.70;;;10.53;;
5303;SDS011;2674;49.722;10.892;2023-03-01T16:17:15;20.13;;;11.20;;
5303;SDS011;2674;49.722;10.892;2023-03-01T16:19:41;22.27;;;10.73;;
5303;SDS011;2674;49.722;10.892;2023-03-01T16:22:08;15.47;;;9.30;;
5303;SDS011;2674;49.722;10.892;2023-03-01T16:24:35;14.77;;;10.40;;
5303;SDS011;2674;49.722;10.892;2023-03-01T16:27:01;18.73;;;11.37;;
5303;SDS011;2674;49.722;10.892;2023-03-01T16:29:28;18.50;;;10.50;;
5303;SDS011;2674;49.722;10.892;2023-03-01T16:31:55;16.50;;;10.50;;
5303;SDS011;2674;49.722;10.892;2023-03-01T16:34:20;16.77;;;9.33;;
5303;SDS011;2674;49.722;10.892;2023-03-01T16:36:47;20.97;;;12.13;;
5303;SDS011;2674;49.722;10.892;2023-03-01T16:39:13;17.47;;;11.10;;
5303;SDS011;2674;49.722;10.892;2023-03-01T16:41:38;19.63;;;10.90;;
5303;SDS011;2674;49.722;10.892;2023-03-01T16:44:04;18.93;;;11.50;;
5303;SDS011;2674;49.722;10.892;2023-03-01T16:46:30;18.00;;;12.00;;
5303;SDS011;2674;49.722;10.892;2023-03-01T16:48:56;19.17;;;10.60;;
5303;SDS011;2674;49.722;10.892;2023-03-01T16:51:22;19.77;;;10.77;;
5303;SDS011;2674;49.722;10.892;2023-03-01T16:53:49;17.10;;;11.00;;
5303;SDS011;2674;49.722;10.892;2023-03-01T16:56:15;20.03;;;11.97;;
5303;SDS011;2674;49.722;10.892;2023-03-01T16:58:43;16.83;;;12.20;;
5303;SDS011;2674;49.722;10.892;2023-03-01T17:03:40;22.73;;;11.70;;
5303;SDS011;2674;49.722;10.892;2023-03-01T17:06:08;26.27;;;12.43;;
5303;SDS011;2674;49.722;10.892;2023-03-01T17:08:35;18.70;;;11.23;;
5303;SDS011;2674;49.722;10.892;2023-03-01T17:11:02;18.43;;;12.07;;
5303;SDS011;2674;49.722;10.892;2023-03-01T17:13:33;19.00;;;11.43;;
5303;SDS011;2674;49.722;10.892;2023-03-01T17:16:00;21.33;;;11.70;;
5303;SDS011;2674;49.722;10.892;2023-03-01T17:18:27;21.47;;;13.17;;
5303;SDS011;2674;49.722;10.892;2023-03-01T17:20:53;19.67;;;12.93;;
5303;SDS011;2674;49.722;10.892;2023-03-01T17:23:19;20.60;;;12.23;;
5303;SDS011;2674;49.722;10.892;2023-03-01T17:25:45;21.87;;;11.90;;
5303;SDS011;2674;49.722;10.892;2023-03-01T17:28:12;20.40;;;10.97;;